YRV weather

Revelstoke Airport
Revelstoke, British Columbia, Canada

Public forecast

Using degrees Celsius for public forecast. Weather courtesy of forecast.io.

Current aviation weather report (METAR) for Revelstoke Airport

Retrieved 2020/05/29 18:00 UTC (47 minutes ago):

CYRV 291800Z AUTO VRB03KT 9SM FEW220 19/05 A3005 RMK SLP178 DENSITY ALT 2000FT

Closest aviation forecast (TAF) to Revelstoke Airport

Closest forecast is Kelowna International Airport, 75.9 nm (140.6 km) SW. Retrieved 2020/05/29 19:39 UTC (0 seconds ago):

TAF CYLW 291838Z 2919/3007 VRB03KT P6SM FEW120 SCT150 TEMPO 2919/3002 BKN120 BECMG 2920/2922 33012KT FM300600 02006KT P6SM FEW120 RMK FCST BASED ON AUTO OBS NXT FCST BY 300100Z